createdAt,value
2019-04-11T00:01:56.480Z,3.70
2019-04-11T00:07:00.253Z,3.60
2019-04-11T00:12:04.599Z,3.50
2019-04-11T00:17:09.729Z,3.50
2019-04-11T00:22:13.655Z,3.50
2019-04-11T00:27:17.173Z,3.50
2019-04-11T00:32:21.289Z,3.50
2019-04-11T00:37:25.345Z,3.50
2019-04-11T00:42:28.874Z,3.40
2019-04-11T00:47:33.161Z,3.30
2019-04-11T00:52:37.152Z,1.90
2019-04-11T00:57:41.618Z,3.20
2019-04-11T01:02:46.080Z,3.10
2019-04-11T01:07:51.065Z,3.00
2019-04-11T01:12:54.722Z,3.00
2019-04-11T01:17:58.900Z,2.90
2019-04-11T01:23:02.756Z,2.80
2019-04-11T01:28:06.780Z,2.60
2019-04-11T01:33:10.856Z,2.30
2019-04-11T01:38:16.436Z,2.10
2019-04-11T01:43:20.573Z,1.90
2019-04-11T01:48:47.928Z,1.80
2019-04-11T01:53:51.544Z,1.60
2019-04-11T01:58:55.222Z,1.50
2019-04-11T02:04:21.644Z,1.30
2019-04-11T02:09:26.246Z,1.20
2019-04-11T02:14:29.867Z,1.00
2019-04-11T02:19:34.368Z,0.90
2019-04-11T02:24:48.065Z,0.90
2019-04-11T02:29:51.365Z,0.80
2019-04-11T02:34:58.558Z,0.70
2019-04-11T02:40:00.720Z,0.60
2019-04-11T02:45:30.801Z,0.60
2019-04-11T02:50:24.202Z,1.60
2019-04-11T02:55:31.530Z,0.50
2019-04-11T03:00:37.526Z,0.40
2019-04-11T03:05:42.526Z,0.40
2019-04-11T03:10:49.139Z,0.40
2019-04-11T03:16:07.144Z,0.30
2019-04-11T03:21:06.103Z,0.30
2019-04-11T03:26:07.657Z,-1.10
2019-04-11T03:31:50.617Z,1.80
2019-04-11T03:37:08.862Z,-3.60
2019-04-11T03:41:40.626Z,-1.10
2019-04-11T03:46:48.116Z,0.30
2019-04-11T03:51:36.461Z,0.20
2019-04-11T03:56:41.404Z,0.30
2019-04-11T04:01:46.748Z,0.20
2019-04-11T04:06:52.903Z,0.10
2019-04-11T04:11:58.979Z,0.10
2019-04-11T04:17:23.479Z,-3.50
2019-04-11T04:22:42.150Z,0.20
2019-04-11T04:27:48.995Z,0.30
2019-04-11T04:32:54.617Z,0.50
2019-04-11T04:37:59.889Z,-1.60
2019-04-11T04:43:06.580Z,0.80
2019-04-11T04:48:13.712Z,0.70
2019-04-11T04:53:16.209Z,1.00
2019-04-11T04:58:22.419Z,1.10
2019-04-11T05:03:26.872Z,1.40
2019-04-11T05:08:30.612Z,1.50
2019-04-11T05:13:34.578Z,1.70
2019-04-11T05:18:39.697Z,2.00
2019-04-11T05:23:43.225Z,2.30
2019-04-11T05:28:46.610Z,2.40
2019-04-11T05:33:50.073Z,2.40
2019-04-11T05:38:53.419Z,2.70
2019-04-11T05:44:01.898Z,2.90
2019-04-11T05:49:11.598Z,3.20
2019-04-11T05:54:16.306Z,3.50
2019-04-11T05:59:21.655Z,3.60
2019-04-11T06:04:32.145Z,3.80
2019-04-11T06:09:39.851Z,4.00
2019-04-11T06:15:01.631Z,4.30
2019-04-11T06:20:27.357Z,4.70
2019-04-11T06:25:40.221Z,4.80
2019-04-11T06:31:16.258Z,4.00
2019-04-11T06:36:39.244Z,5.40
2019-04-11T06:42:11.383Z,2.20
2019-04-11T06:47:37.183Z,6.00
2019-04-11T06:52:41.280Z,6.00
2019-04-11T06:57:45.911Z,6.00
2019-04-11T07:02:54.989Z,4.70
2019-04-11T07:07:59.930Z,6.20
2019-04-11T07:13:15.061Z,6.20
2019-04-11T07:18:37.813Z,6.10
2019-04-11T07:24:20.291Z,5.90
2019-04-11T07:29:40.449Z,5.80
2019-04-11T07:35:02.414Z,5.80
2019-04-11T07:40:27.752Z,5.50
2019-04-11T07:45:47.119Z,6.00
2019-04-11T07:51:38.775Z,7.00
2019-04-11T07:57:03.873Z,8.70
2019-04-11T08:02:26.767Z,7.80
2019-04-11T08:07:49.091Z,8.20
2019-04-11T08:12:54.221Z,8.70
2019-04-11T08:18:00.510Z,7.80
2019-04-11T08:23:07.564Z,8.60
2019-04-11T08:28:13.964Z,8.80
2019-04-11T08:33:18.308Z,8.30
2019-04-11T08:38:29.429Z,7.60
2019-04-11T08:43:33.156Z,7.50
2019-04-11T08:48:39.359Z,7.40
2019-04-11T08:54:04.855Z,7.60
2019-04-11T08:59:32.012Z,7.90
2019-04-11T09:05:03.290Z,8.30
2019-04-11T09:10:20.076Z,8.40
2019-04-11T09:15:46.244Z,8.30
2019-04-11T09:21:08.365Z,7.30
2019-04-11T09:26:20.264Z,9.00
2019-04-11T09:31:49.551Z,9.60
2019-04-11T09:37:00.978Z,10.10
2019-04-11T09:42:24.025Z,10.80
2019-04-11T09:47:50.004Z,9.70
2019-04-11T09:52:54.617Z,10.70
2019-04-11T09:58:00.132Z,10.60
2019-04-11T10:03:13.150Z,10.40
2019-04-11T10:08:33.447Z,10.50
2019-04-11T10:13:55.390Z,10.70
2019-04-11T10:19:24.483Z,7.60
2019-04-11T10:24:50.797Z,11.00
2019-04-11T10:30:13.053Z,11.00
2019-04-11T10:35:54.558Z,7.30
2019-04-11T10:41:06.396Z,10.60
2019-04-11T10:46:33.291Z,9.60
2019-04-11T10:51:49.729Z,9.80
2019-04-11T10:57:16.018Z,9.70
2019-04-11T11:02:39.751Z,10.20
2019-04-11T11:07:44.675Z,10.70
2019-04-11T11:13:13.922Z,10.90
2019-04-11T11:19:02.010Z,9.50
2019-04-11T11:24:07.164Z,10.60
2019-04-11T11:29:40.442Z,8.50
2019-04-11T11:34:53.334Z,10.10
2019-04-11T11:40:16.748Z,10.10
2019-04-11T11:45:35.363Z,10.70
2019-04-11T11:50:39.820Z,10.40
2019-04-11T11:55:43.263Z,10.60
2019-04-11T12:00:49.769Z,9.30
2019-04-11T12:05:56.664Z,10.60
2019-04-11T12:11:04.082Z,10.20
2019-04-11T12:16:27.926Z,8.50
2019-04-11T12:21:33.080Z,9.90
2019-04-11T12:26:46.276Z,9.80
2019-04-11T12:31:54.123Z,9.90
2019-04-11T12:36:58.030Z,10.10
2019-04-11T12:42:07.030Z,10.00
2019-04-11T12:47:25.167Z,9.90
2019-04-11T12:52:34.454Z,9.50
2019-04-11T12:57:56.827Z,9.80
2019-04-11T13:03:18.926Z,10.10
2019-04-11T13:08:42.175Z,9.80
2019-04-11T13:14:04.364Z,10.00
2019-04-11T13:19:27.793Z,10.30
2019-04-11T13:25:05.710Z,10.30
2019-04-11T13:30:21.613Z,8.80
2019-04-11T13:36:03.497Z,8.70
2019-04-11T13:41:25.436Z,10.20
2019-04-11T13:46:48.398Z,10.40
2019-04-11T13:52:07.916Z,9.40
2019-04-11T13:57:48.933Z,10.70
2019-04-11T14:03:09.963Z,10.60
2019-04-11T14:08:18.010Z,10.90
2019-04-11T14:13:31.784Z,8.60
2019-04-11T14:18:52.274Z,9.70
2019-04-11T14:24:18.141Z,11.30
2019-04-11T14:29:42.481Z,11.40
2019-04-11T14:34:56.660Z,11.00
2019-04-11T14:40:19.652Z,11.00
2019-04-11T14:45:42.562Z,11.60
2019-04-11T14:51:07.594Z,10.40
2019-04-11T14:56:11.003Z,10.10
2019-04-11T15:01:15.937Z,14.40
2019-04-11T15:06:24.879Z,12.70
2019-04-11T15:11:47.191Z,11.30
2019-04-11T15:17:11.106Z,10.50
2019-04-11T15:22:43.210Z,9.70
2019-04-11T15:28:00.463Z,9.60
2019-04-11T15:33:41.996Z,6.00
2019-04-11T15:39:13.612Z,9.30
2019-04-11T15:44:36.588Z,9.40
2019-04-11T15:50:09.290Z,9.50
2019-04-11T15:55:38.223Z,6.70
2019-04-11T16:00:56.427Z,9.70
2019-04-11T16:06:18.557Z,6.20
2019-04-11T16:11:53.340Z,12.40
2019-04-11T16:17:19.275Z,10.60
2019-04-11T16:22:43.163Z,9.80
2019-04-11T16:28:07.285Z,16.10
2019-04-11T16:33:40.653Z,15.80
2019-04-11T16:38:51.195Z,23.40
2019-04-11T16:43:58.237Z,23.70
2019-04-11T16:49:01.884Z,17.80
2019-04-11T16:54:05.269Z,14.50
2019-04-11T16:59:09.343Z,10.50
2019-04-11T17:09:36.604Z,9.20
2019-04-11T17:14:39.937Z,7.40
2019-04-11T17:19:43.355Z,6.90
2019-04-11T17:40:00.591Z,5.80
2019-04-11T17:45:04.231Z,5.60
2019-04-11T17:50:08.219Z,5.40
2019-04-11T17:55:11.567Z,5.30
2019-04-11T18:00:23.654Z,5.30
2019-04-11T18:05:27.121Z,5.20
2019-04-11T18:10:30.579Z,5.10
2019-04-11T18:15:34.668Z,5.00
2019-04-11T18:20:38.023Z,4.90
2019-04-11T18:35:49.837Z,4.80
2019-04-11T18:56:04.512Z,4.50
2019-04-11T19:06:13.807Z,4.30
2019-04-11T19:11:17.763Z,4.20
2019-04-11T19:16:21.528Z,4.10
2019-04-11T19:21:25.597Z,4.00
2019-04-11T19:26:29.011Z,3.90
2019-04-11T19:36:36.038Z,3.70
2019-04-11T19:41:40.221Z,3.60
2019-04-11T20:12:14.670Z,3.10
2019-04-11T20:27:27.230Z,3.00
2019-04-11T20:32:32.932Z,2.90
2019-04-11T20:37:39.403Z,3.00
2019-04-11T20:42:41.868Z,3.00
2019-04-11T20:47:45.349Z,3.00
2019-04-11T20:52:48.747Z,2.90
2019-04-11T20:57:52.405Z,2.80
2019-04-11T21:02:58.423Z,2.80
2019-04-11T21:08:03.641Z,2.70
2019-04-11T21:13:07.820Z,1.30
2019-04-11T21:18:11.275Z,2.60
2019-04-11T21:23:24.347Z,2.60
2019-04-11T21:28:21.118Z,3.70
2019-04-11T21:33:24.716Z,2.50
2019-04-11T21:38:30.845Z,2.50
2019-04-11T21:43:36.288Z,2.70
2019-04-11T21:48:40.452Z,2.50
2019-04-11T21:53:45.183Z,4.40
2019-04-11T21:58:50.103Z,2.30
2019-04-11T22:03:57.716Z,2.30
2019-04-11T22:09:04.878Z,2.20
2019-04-11T22:14:05.990Z,2.20
2019-04-11T22:19:09.299Z,-0.20
2019-04-11T22:24:12.943Z,2.10
2019-04-11T22:29:16.660Z,2.00
2019-04-11T22:34:39.887Z,-1.70
2019-04-11T22:39:43.646Z,1.90
2019-04-11T22:44:48.279Z,1.90
2019-04-11T22:49:52.396Z,1.90
2019-04-11T22:54:56.125Z,1.90
2019-04-11T23:00:00.888Z,-1.60
2019-04-11T23:05:04.806Z,0.20
2019-04-11T23:10:08.445Z,1.70
2019-04-11T23:15:14.883Z,1.70
2019-04-11T23:20:17.530Z,1.60
2019-04-11T23:25:20.963Z,1.70
2019-04-11T23:30:24.349Z,1.70
2019-04-11T23:35:27.662Z,1.70
2019-04-11T23:40:31.081Z,1.60
2019-04-11T23:45:34.934Z,3.10
2019-04-11T23:50:38.298Z,1.60
2019-04-11T23:55:42.506Z,1.50
